createdAt,value
2017-07-26T13:06:34.931Z,48.10
2017-07-26T13:09:02.591Z,50.20
2017-07-26T13:11:30.206Z,47.70
2017-07-26T13:14:10.707Z,47.20
2017-07-26T13:16:38.354Z,47.80
2017-07-26T13:19:05.992Z,49.60
2017-07-26T13:21:33.671Z,49.20
2017-07-26T13:24:01.269Z,50.60
2017-07-26T13:26:29.349Z,51.90
2017-07-26T13:29:10.905Z,51.60
2017-07-26T13:31:38.563Z,52.30
2017-07-26T13:34:07.981Z,54.10
2017-07-26T13:36:35.611Z,54.00
2017-07-26T13:39:03.431Z,55.30
2017-07-26T13:41:31.078Z,55.00
2017-07-26T13:43:58.731Z,56.60
2017-07-26T13:46:35.968Z,56.00
2017-07-26T13:49:03.669Z,57.70
2017-07-26T13:51:32.445Z,58.30
2017-07-26T13:54:00.094Z,58.10
2017-07-26T13:56:27.769Z,57.60
2017-07-26T13:58:55.894Z,58.80
2017-07-26T14:01:36.228Z,59.00
2017-07-26T14:04:04.222Z,59.40
2017-07-26T14:06:31.900Z,61.00
2017-07-26T14:09:01.081Z,60.60
2017-07-26T14:11:28.860Z,60.50
2017-07-26T14:13:56.554Z,60.90
2017-07-26T14:16:24.175Z,60.40
2017-07-26T14:21:38.384Z,58.80
2017-07-26T14:24:08.807Z,59.00
2017-07-26T14:26:36.793Z,58.70
2017-07-26T14:29:07.098Z,58.90
2017-07-26T14:31:34.701Z,57.90
2017-07-26T14:34:02.343Z,58.60
2017-07-26T14:36:29.973Z,58.10
2017-07-26T14:38:59.693Z,58.60
2017-07-26T14:41:27.380Z,58.90
2017-07-26T14:43:55.033Z,58.90
2017-07-26T14:46:22.658Z,58.80
2017-07-26T14:48:51.334Z,60.40
2017-07-26T14:51:19.856Z,61.40
2017-07-26T14:53:47.438Z,61.40
2017-07-26T14:56:15.361Z,61.30
2017-07-26T14:58:42.997Z,61.40
2017-07-26T15:01:11.394Z,62.10
2017-07-26T15:03:39.293Z,62.50
2017-07-26T15:06:06.986Z,62.50
2017-07-26T15:08:36.824Z,62.00
2017-07-26T15:11:04.527Z,62.20
2017-07-26T15:13:33.169Z,62.80
2017-07-26T15:16:00.859Z,63.60
2017-07-26T15:18:28.629Z,65.10
2017-07-26T15:20:56.328Z,66.40
2017-07-26T15:23:24.634Z,68.30
2017-07-26T15:25:53.307Z,70.50
2017-07-26T15:31:18.926Z,74.30
2017-07-26T15:33:55.661Z,75.90
2017-07-26T15:36:24.187Z,77.40
2017-07-26T15:38:52.010Z,77.90
2017-07-26T15:41:19.695Z,77.20
2017-07-26T15:43:49.489Z,77.80
2017-07-26T15:46:17.167Z,78.50
2017-07-26T15:48:44.868Z,78.60
2017-07-26T15:51:12.486Z,79.10
2017-07-26T15:53:41.100Z,78.30
2017-07-26T15:56:08.740Z,78.90
2017-07-26T15:58:39.897Z,79.50
2017-07-26T16:01:07.747Z,79.20
2017-07-26T16:03:35.614Z,79.80
2017-07-26T16:06:03.330Z,79.70
2017-07-26T16:08:31.001Z,79.20
2017-07-26T16:11:02.010Z,79.30
2017-07-26T16:13:29.729Z,78.80
2017-07-26T16:15:57.302Z,79.90
2017-07-26T16:18:24.826Z,80.10
2017-07-26T16:20:52.611Z,80.30
2017-07-26T16:23:20.229Z,80.90
2017-07-26T16:25:47.802Z,80.60
2017-07-26T16:28:15.545Z,81.20
2017-07-26T16:30:43.176Z,81.50
2017-07-26T16:33:10.756Z,82.50
2017-07-26T16:35:39.702Z,82.40
2017-07-26T16:38:09.123Z,82.10
2017-07-26T16:40:39.865Z,82.10
2017-07-26T16:43:07.526Z,82.20
2017-07-26T16:45:35.080Z,82.50
2017-07-26T16:48:02.642Z,82.80
2017-07-26T16:50:30.237Z,83.20
2017-07-26T16:52:57.805Z,83.00
2017-07-26T16:55:25.450Z,82.70
2017-07-26T16:57:53.090Z,83.50
2017-07-26T17:00:20.625Z,83.60
2017-07-26T17:02:48.934Z,83.80
2017-07-26T17:05:16.565Z,82.90
2017-07-26T17:07:44.295Z,82.90
2017-07-26T17:10:12.822Z,82.30
2017-07-26T17:12:40.373Z,83.40
2017-07-26T17:15:09.660Z,83.70
2017-07-26T17:17:37.247Z,84.00
2017-07-26T17:20:04.874Z,84.20
2017-07-26T17:22:32.483Z,84.50
2017-07-26T17:25:00.974Z,84.40
2017-07-26T17:27:28.591Z,84.70
2017-07-26T17:29:56.220Z,84.60
2017-07-26T17:32:24.646Z,84.90
2017-07-26T17:34:52.314Z,85.10
2017-07-26T17:37:19.987Z,85.60
2017-07-26T17:39:48.198Z,85.50
2017-07-26T17:42:15.887Z,86.00
2017-07-26T17:44:43.507Z,85.90
2017-07-26T17:47:11.082Z,86.20
2017-07-26T17:49:39.473Z,86.40
2017-07-26T17:52:07.717Z,86.70
2017-07-26T17:54:36.180Z,86.20
2017-07-26T17:57:03.792Z,86.60
2017-07-26T17:59:31.401Z,86.70
2017-07-26T18:02:00.843Z,86.40
2017-07-26T18:04:30.323Z,86.50
2017-07-26T18:06:58.430Z,86.80
2017-07-26T18:09:25.961Z,87.20
2017-07-26T18:11:53.612Z,87.20
2017-07-26T18:14:21.172Z,87.50
2017-07-26T18:16:48.819Z,87.30
2017-07-26T18:19:17.222Z,87.60
2017-07-26T18:21:45.159Z,87.70
2017-07-26T18:24:12.734Z,87.40
2017-07-26T18:26:41.414Z,87.40
2017-07-26T18:29:09.761Z,87.60
2017-07-26T18:31:37.320Z,87.60
2017-07-26T18:34:04.969Z,87.50
2017-07-26T18:36:32.534Z,87.60
2017-07-26T18:39:00.335Z,88.00
2017-07-26T18:41:28.790Z,87.70
2017-07-26T18:43:56.409Z,88.00
2017-07-26T18:46:24.546Z,87.70
2017-07-26T18:48:52.211Z,88.20
2017-07-26T18:51:20.806Z,87.90
2017-07-26T18:53:48.382Z,88.00
2017-07-26T18:56:15.971Z,88.40
2017-07-26T18:58:43.474Z,89.20
2017-07-26T19:01:11.522Z,88.40
2017-07-26T19:03:39.118Z,88.30
2017-07-26T19:06:06.657Z,88.30
2017-07-26T19:08:34.258Z,88.60
2017-07-26T19:11:02.106Z,89.00
2017-07-26T19:13:30.383Z,89.00
2017-07-26T19:15:57.914Z,89.10
2017-07-26T19:18:26.311Z,89.00
2017-07-26T19:20:55.190Z,89.00
2017-07-26T19:23:22.765Z,89.00
2017-07-26T19:25:50.412Z,89.20
2017-07-26T19:28:18.190Z,89.40
2017-07-26T19:30:46.762Z,89.40
2017-07-26T19:33:15.572Z,89.50
2017-07-26T19:35:43.407Z,89.30
2017-07-26T19:38:11.798Z,89.30
2017-07-26T19:40:40.213Z,89.50
2017-07-26T19:43:07.771Z,89.50
2017-07-26T19:45:35.468Z,90.00
2017-07-26T19:48:03.173Z,90.00
2017-07-26T19:50:32.118Z,90.10
2017-07-26T19:52:59.654Z,90.00
2017-07-26T19:55:27.287Z,90.00
2017-07-26T19:57:54.887Z,90.10
2017-07-26T20:00:23.107Z,89.70
2017-07-26T20:02:50.889Z,90.00
2017-07-26T20:05:19.183Z,90.00
2017-07-26T20:07:46.717Z,90.10
2017-07-26T20:10:14.346Z,90.00
2017-07-26T20:12:41.930Z,90.00
2017-07-26T20:15:09.496Z,90.00
2017-07-26T20:17:37.827Z,90.20
2017-07-26T20:20:05.936Z,90.20
2017-07-26T20:22:34.255Z,90.10
2017-07-26T20:25:01.884Z,90.00
2017-07-26T20:27:29.444Z,90.10
2017-07-26T20:29:57.005Z,90.10
2017-07-26T20:32:26.059Z,90.10
2017-07-26T20:34:53.612Z,90.00
2017-07-26T20:37:21.142Z,90.20
2017-07-26T20:39:48.810Z,90.20
2017-07-26T20:42:16.448Z,90.00
2017-07-26T20:44:44.810Z,89.70
2017-07-26T20:47:12.422Z,89.70
2017-07-26T20:49:40.004Z,89.70
2017-07-26T20:52:07.590Z,90.00
2017-07-26T20:54:35.234Z,88.90
2017-07-26T20:57:03.811Z,89.00
2017-07-26T20:59:31.622Z,89.70
2017-07-26T21:01:59.237Z,90.00
2017-07-26T21:04:27.336Z,90.20
2017-07-26T21:06:55.586Z,90.20
2017-07-26T21:09:23.758Z,90.30
2017-07-26T21:14:45.035Z,90.30
2017-07-26T21:17:12.609Z,90.40
2017-07-26T21:19:40.170Z,90.50
2017-07-26T21:22:07.770Z,90.20
2017-07-26T21:24:35.383Z,89.60
2017-07-26T21:27:03.962Z,89.80
2017-07-26T21:29:32.464Z,90.10
2017-07-26T21:32:01.126Z,90.00
2017-07-26T21:34:29.067Z,90.00
2017-07-26T21:36:56.700Z,90.00
2017-07-26T21:39:24.500Z,90.20
2017-07-26T21:41:52.382Z,90.10
2017-07-26T21:44:19.982Z,90.20
2017-07-26T21:46:47.542Z,89.90
2017-07-26T21:49:15.173Z,90.10
2017-07-26T21:51:42.729Z,90.10
2017-07-26T21:54:10.318Z,89.70
2017-07-26T21:56:38.858Z,89.40
2017-07-26T21:59:06.535Z,89.40
2017-07-26T22:01:34.056Z,88.80
2017-07-26T22:04:02.410Z,89.70
2017-07-26T22:06:29.965Z,89.60
2017-07-26T22:08:58.700Z,89.70
2017-07-26T22:11:26.273Z,90.10
2017-07-26T22:13:53.984Z,90.10
2017-07-26T22:16:21.567Z,89.80
2017-07-26T22:18:49.891Z,89.20
2017-07-26T22:21:17.482Z,89.10
2017-07-26T22:23:45.015Z,89.30
2017-07-26T22:26:12.535Z,89.70
2017-07-26T22:28:40.094Z,89.40
2017-07-26T22:31:09.651Z,89.30
2017-07-26T22:33:37.208Z,89.60
2017-07-26T22:36:04.792Z,89.60
2017-07-26T22:38:32.288Z,89.40
2017-07-26T22:41:00.044Z,89.30
2017-07-26T22:43:27.652Z,89.40
2017-07-26T22:46:07.151Z,89.40
2017-07-26T22:48:34.719Z,89.30
2017-07-26T22:51:03.092Z,89.10
2017-07-26T22:53:30.607Z,89.20
2017-07-26T22:55:58.159Z,89.00
2017-07-26T22:58:25.733Z,89.30
2017-07-26T23:00:53.256Z,89.60
2017-07-26T23:03:21.715Z,89.20
2017-07-26T23:05:49.262Z,89.20
2017-07-26T23:08:16.850Z,88.90
2017-07-26T23:10:44.479Z,88.20
2017-07-26T23:13:12.100Z,88.30
2017-07-26T23:15:39.665Z,88.30
2017-07-26T23:18:07.236Z,88.50
2017-07-26T23:20:34.833Z,88.50
2017-07-26T23:23:03.086Z,88.70
2017-07-26T23:25:32.414Z,88.70
2017-07-26T23:27:59.959Z,88.80
2017-07-26T23:30:27.502Z,88.80
2017-07-26T23:32:55.100Z,88.90
2017-07-26T23:35:23.289Z,89.30
2017-07-26T23:37:50.847Z,88.60
2017-07-26T23:40:18.498Z,88.10
2017-07-26T23:42:46.041Z,87.50
2017-07-26T23:45:13.621Z,88.00
2017-07-26T23:47:41.216Z,88.30
2017-07-26T23:50:08.763Z,89.00
2017-07-26T23:52:36.293Z,89.50
2017-07-26T23:55:03.898Z,89.60
2017-07-26T23:57:31.418Z,89.70
2017-07-26T23:59:58.933Z,89.80
